sensor_id;sensor_type;location;lat;lon;timestamp;pressure;altitude;pressure_sealevel;temperature
9119;BMP180;4594;50.994;7.126;2023-12-22T00:01:09;99238.00;;;10.80
9119;BMP180;4594;50.994;7.126;2023-12-22T00:03:35;99257.00;;;10.80
9119;BMP180;4594;50.994;7.126;2023-12-22T00:06:01;99271.00;;;10.70
9119;BMP180;4594;50.994;7.126;2023-12-22T00:08:27;99263.00;;;10.70
9119;BMP180;4594;50.994;7.126;2023-12-22T00:10:53;99240.00;;;10.70
9119;BMP180;4594;50.994;7.126;2023-12-22T00:13:18;99238.00;;;10.60
9119;BMP180;4594;50.994;7.126;2023-12-22T00:15:44;99231.00;;;10.60
9119;BMP180;4594;50.994;7.126;2023-12-22T00:18:10;99251.00;;;10.60
9119;BMP180;4594;50.994;7.126;2023-12-22T00:20:36;99249.00;;;10.50
9119;BMP180;4594;50.994;7.126;2023-12-22T00:23:01;99238.00;;;10.50
9119;BMP180;4594;50.994;7.126;2023-12-22T00:25:27;99243.00;;;10.50
9119;BMP180;4594;50.994;7.126;2023-12-22T00:27:53;99237.00;;;10.50
9119;BMP180;4594;50.994;7.126;2023-12-22T00:30:19;99253.00;;;10.50
9119;BMP180;4594;50.994;7.126;2023-12-22T00:32:44;99239.00;;;10.50
9119;BMP180;4594;50.994;7.126;2023-12-22T00:35:10;99245.00;;;10.50
9119;BMP180;4594;50.994;7.126;2023-12-22T00:37:36;99246.00;;;10.50
9119;BMP180;4594;50.994;7.126;2023-12-22T00:40:02;99212.00;;;10.50
9119;BMP180;4594;50.994;7.126;2023-12-22T00:42:32;99264.00;;;10.50
9119;BMP180;4594;50.994;7.126;2023-12-22T00:44:58;99242.00;;;10.50
9119;BMP180;4594;50.994;7.126;2023-12-22T00:47:23;99247.00;;;10.50
9119;BMP180;4594;50.994;7.126;2023-12-22T00:49:49;99224.00;;;10.40
9119;BMP180;4594;50.994;7.126;2023-12-22T00:52:15;99233.00;;;10.40
9119;BMP180;4594;50.994;7.126;2023-12-22T00:54:40;99230.00;;;10.40
9119;BMP180;4594;50.994;7.126;2023-12-22T00:57:06;99236.00;;;10.40
9119;BMP180;4594;50.994;7.126;2023-12-22T00:59:32;99218.00;;;10.40
9119;BMP180;4594;50.994;7.126;2023-12-22T01:01:57;99237.00;;;10.40
9119;BMP180;4594;50.994;7.126;2023-12-22T01:04:23;99245.00;;;10.40
9119;BMP180;4594;50.994;7.126;2023-12-22T01:06:49;99279.00;;;10.40
9119;BMP180;4594;50.994;7.126;2023-12-22T01:09:15;99282.00;;;10.40
9119;BMP180;4594;50.994;7.126;2023-12-22T01:11:41;99288.00;;;10.50
9119;BMP180;4594;50.994;7.126;2023-12-22T01:14:07;99263.00;;;10.50
9119;BMP180;4594;50.994;7.126;2023-12-22T01:16:33;99263.00;;;10.50
9119;BMP180;4594;50.994;7.126;2023-12-22T01:18:59;99292.00;;;10.50
9119;BMP180;4594;50.994;7.126;2023-12-22T01:21:25;99314.00;;;10.50
9119;BMP180;4594;50.994;7.126;2023-12-22T01:23:50;99296.00;;;10.50
9119;BMP180;4594;50.994;7.126;2023-12-22T01:26:16;99281.00;;;10.50
9119;BMP180;4594;50.994;7.126;2023-12-22T01:28:42;99273.00;;;10.50
9119;BMP180;4594;50.994;7.126;2023-12-22T01:31:08;99250.00;;;10.50
9119;BMP180;4594;50.994;7.126;2023-12-22T01:33:33;99252.00;;;10.50
9119;BMP180;4594;50.994;7.126;2023-12-22T01:35:59;99271.00;;;10.50
9119;BMP180;4594;50.994;7.126;2023-12-22T01:38:25;99264.00;;;10.50
9119;BMP180;4594;50.994;7.126;2023-12-22T01:40:51;99226.00;;;10.50
9119;BMP180;4594;50.994;7.126;2023-12-22T01:43:16;99266.00;;;10.50
9119;BMP180;4594;50.994;7.126;2023-12-22T01:45:55;99282.00;;;10.50
9119;BMP180;4594;50.994;7.126;2023-12-22T01:48:22;99282.00;;;10.60
9119;BMP180;4594;50.994;7.126;2023-12-22T01:50:50;99295.00;;;10.60
9119;BMP180;4594;50.994;7.126;2023-12-22T01:53:19;99276.00;;;10.60
9119;BMP180;4594;50.994;7.126;2023-12-22T01:55:48;99238.00;;;10.60
9119;BMP180;4594;50.994;7.126;2023-12-22T01:58:14;99269.00;;;10.60
9119;BMP180;4594;50.994;7.126;2023-12-22T02:00:40;99271.00;;;10.60
9119;BMP180;4594;50.994;7.126;2023-12-22T02:03:06;99292.00;;;10.60
9119;BMP180;4594;50.994;7.126;2023-12-22T02:05:33;99293.00;;;10.60
9119;BMP180;4594;50.994;7.126;2023-12-22T02:08:00;99309.00;;;10.60
9119;BMP180;4594;50.994;7.126;2023-12-22T02:10:25;99310.00;;;10.60
9119;BMP180;4594;50.994;7.126;2023-12-22T02:12:51;99293.00;;;10.60
9119;BMP180;4594;50.994;7.126;2023-12-22T02:15:17;99299.00;;;10.60
9119;BMP180;4594;50.994;7.126;2023-12-22T02:17:49;99289.00;;;10.60
9119;BMP180;4594;50.994;7.126;2023-12-22T02:20:17;99297.00;;;10.60
9119;BMP180;4594;50.994;7.126;2023-12-22T02:22:43;99283.00;;;10.60
9119;BMP180;4594;50.994;7.126;2023-12-22T02:25:09;99296.00;;;10.70
9119;BMP180;4594;50.994;7.126;2023-12-22T02:27:40;99318.00;;;10.60
9119;BMP180;4594;50.994;7.126;2023-12-22T02:33:27;99294.00;;;10.70
9119;BMP180;4594;50.994;7.126;2023-12-22T02:36:03;99290.00;;;10.70
9119;BMP180;4594;50.994;7.126;2023-12-22T02:38:29;99289.00;;;10.70
9119;BMP180;4594;50.994;7.126;2023-12-22T02:40:56;99284.00;;;10.70
9119;BMP180;4594;50.994;7.126;2023-12-22T02:43:22;99286.00;;;10.80
9119;BMP180;4594;50.994;7.126;2023-12-22T02:45:51;99279.00;;;10.80
9119;BMP180;4594;50.994;7.126;2023-12-22T02:48:17;99278.00;;;10.90
9119;BMP180;4594;50.994;7.126;2023-12-22T02:50:43;99269.00;;;10.90
9119;BMP180;4594;50.994;7.126;2023-12-22T02:53:09;99293.00;;;10.90
9119;BMP180;4594;50.994;7.126;2023-12-22T02:55:35;99286.00;;;10.90
9119;BMP180;4594;50.994;7.126;2023-12-22T02:58:00;99304.00;;;10.90
9119;BMP180;4594;50.994;7.126;2023-12-22T03:00:26;99307.00;;;10.90
9119;BMP180;4594;50.994;7.126;2023-12-22T03:02:52;99289.00;;;10.90
9119;BMP180;4594;50.994;7.126;2023-12-22T03:05:17;99326.00;;;11.00
9119;BMP180;4594;50.994;7.126;2023-12-22T03:07:43;99308.00;;;10.90
9119;BMP180;4594;50.994;7.126;2023-12-22T03:10:09;99289.00;;;10.90
9119;BMP180;4594;50.994;7.126;2023-12-22T03:12:34;99317.00;;;11.00
9119;BMP180;4594;50.994;7.126;2023-12-22T03:15:00;99313.00;;;10.90
9119;BMP180;4594;50.994;7.126;2023-12-22T03:17:26;99289.00;;;10.90
9119;BMP180;4594;50.994;7.126;2023-12-22T03:19:51;99305.00;;;10.90
9119;BMP180;4594;50.994;7.126;2023-12-22T03:22:17;99274.00;;;11.00
9119;BMP180;4594;50.994;7.126;2023-12-22T03:24:43;99272.00;;;11.00
9119;BMP180;4594;50.994;7.126;2023-12-22T03:27:10;99275.00;;;10.90
9119;BMP180;4594;50.994;7.126;2023-12-22T03:29:35;99273.00;;;10.90
9119;BMP180;4594;50.994;7.126;2023-12-22T03:32:01;99280.00;;;10.80
9119;BMP180;4594;50.994;7.126;2023-12-22T03:34:27;99289.00;;;10.90
9119;BMP180;4594;50.994;7.126;2023-12-22T03:36:52;99272.00;;;10.80
9119;BMP180;4594;50.994;7.126;2023-12-22T03:39:18;99269.00;;;10.80
9119;BMP180;4594;50.994;7.126;2023-12-22T03:41:44;99277.00;;;10.80
9119;BMP180;4594;50.994;7.126;2023-12-22T03:44:10;99286.00;;;10.80
9119;BMP180;4594;50.994;7.126;2023-12-22T03:46:35;99294.00;;;10.80
9119;BMP180;4594;50.994;7.126;2023-12-22T03:49:01;99304.00;;;10.80
9119;BMP180;4594;50.994;7.126;2023-12-22T03:51:27;99317.00;;;10.80
9119;BMP180;4594;50.994;7.126;2023-12-22T03:53:52;99297.00;;;10.80
9119;BMP180;4594;50.994;7.126;2023-12-22T03:56:18;99309.00;;;10.80
9119;BMP180;4594;50.994;7.126;2023-12-22T03:58:44;99318.00;;;10.80
9119;BMP180;4594;50.994;7.126;2023-12-22T04:01:14;99313.00;;;10.80
9119;BMP180;4594;50.994;7.126;2023-12-22T04:03:40;99293.00;;;10.90
9119;BMP180;4594;50.994;7.126;2023-12-22T04:06:06;99318.00;;;10.90
9119;BMP180;4594;50.994;7.126;2023-12-22T04:08:32;99300.00;;;10.90
9119;BMP180;4594;50.994;7.126;2023-12-22T04:10:57;99308.00;;;10.90
9119;BMP180;4594;50.994;7.126;2023-12-22T04:13:23;99289.00;;;11.00
9119;BMP180;4594;50.994;7.126;2023-12-22T04:15:49;99320.00;;;11.00
9119;BMP180;4594;50.994;7.126;2023-12-22T04:18:15;99312.00;;;11.00
9119;BMP180;4594;50.994;7.126;2023-12-22T04:20:40;99275.00;;;11.00
9119;BMP180;4594;50.994;7.126;2023-12-22T04:23:06;99278.00;;;11.00
9119;BMP180;4594;50.994;7.126;2023-12-22T04:25:32;99307.00;;;11.00
9119;BMP180;4594;50.994;7.126;2023-12-22T04:27:57;99291.00;;;10.90
9119;BMP180;4594;50.994;7.126;2023-12-22T04:30:23;99293.00;;;10.90
9119;BMP180;4594;50.994;7.126;2023-12-22T04:32:49;99288.00;;;11.00
9119;BMP180;4594;50.994;7.126;2023-12-22T04:35:15;99278.00;;;11.00
9119;BMP180;4594;50.994;7.126;2023-12-22T04:37:40;99254.00;;;11.00
9119;BMP180;4594;50.994;7.126;2023-12-22T04:40:07;99225.00;;;11.00
9119;BMP180;4594;50.994;7.126;2023-12-22T04:42:32;99225.00;;;11.00
9119;BMP180;4594;50.994;7.126;2023-12-22T04:44:58;99268.00;;;11.00
9119;BMP180;4594;50.994;7.126;2023-12-22T04:47:24;99316.00;;;11.00
9119;BMP180;4594;50.994;7.126;2023-12-22T04:49:50;99350.00;;;11.00
9119;BMP180;4594;50.994;7.126;2023-12-22T04:52:15;99341.00;;;11.00
9119;BMP180;4594;50.994;7.126;2023-12-22T04:54:41;99316.00;;;11.00
9119;BMP180;4594;50.994;7.126;2023-12-22T04:57:07;99310.00;;;11.00
9119;BMP180;4594;50.994;7.126;2023-12-22T04:59:32;99310.00;;;10.90
9119;BMP180;4594;50.994;7.126;2023-12-22T05:01:58;99330.00;;;10.90
9119;BMP180;4594;50.994;7.126;2023-12-22T05:04:24;99346.00;;;10.90
9119;BMP180;4594;50.994;7.126;2023-12-22T05:06:50;99318.00;;;10.90
9119;BMP180;4594;50.994;7.126;2023-12-22T05:09:16;99291.00;;;10.90
9119;BMP180;4594;50.994;7.126;2023-12-22T05:11:42;99337.00;;;10.90
9119;BMP180;4594;50.994;7.126;2023-12-22T05:14:08;99293.00;;;10.90
9119;BMP180;4594;50.994;7.126;2023-12-22T05:16:34;99325.00;;;10.80
9119;BMP180;4594;50.994;7.126;2023-12-22T05:19:00;99314.00;;;10.80
9119;BMP180;4594;50.994;7.126;2023-12-22T05:21:26;99299.00;;;10.80
9119;BMP180;4594;50.994;7.126;2023-12-22T05:23:53;99314.00;;;10.80
9119;BMP180;4594;50.994;7.126;2023-12-22T05:26:22;99323.00;;;10.90
9119;BMP180;4594;50.994;7.126;2023-12-22T05:28:48;99286.00;;;10.90
9119;BMP180;4594;50.994;7.126;2023-12-22T05:31:17;99320.00;;;10.90
9119;BMP180;4594;50.994;7.126;2023-12-22T05:33:43;99333.00;;;11.00
9119;BMP180;4594;50.994;7.126;2023-12-22T05:36:09;99332.00;;;11.00
9119;BMP180;4594;50.994;7.126;2023-12-22T05:38:38;99345.00;;;11.00
9119;BMP180;4594;50.994;7.126;2023-12-22T05:41:05;99334.00;;;11.00
9119;BMP180;4594;50.994;7.126;2023-12-22T05:43:32;99334.00;;;11.10
9119;BMP180;4594;50.994;7.126;2023-12-22T05:45:59;99341.00;;;11.10
9119;BMP180;4594;50.994;7.126;2023-12-22T05:48:26;99351.00;;;11.10
9119;BMP180;4594;50.994;7.126;2023-12-22T05:50:56;99344.00;;;11.10
9119;BMP180;4594;50.994;7.126;2023-12-22T05:53:23;99351.00;;;11.20
9119;BMP180;4594;50.994;7.126;2023-12-22T05:55:49;99337.00;;;11.20
9119;BMP180;4594;50.994;7.126;2023-12-22T05:58:14;99342.00;;;11.20
9119;BMP180;4594;50.994;7.126;2023-12-22T06:00:40;99349.00;;;11.20
9119;BMP180;4594;50.994;7.126;2023-12-22T06:03:06;99355.00;;;11.30
9119;BMP180;4594;50.994;7.126;2023-12-22T06:05:32;99359.00;;;11.30
9119;BMP180;4594;50.994;7.126;2023-12-22T06:07:57;99355.00;;;11.40
9119;BMP180;4594;50.994;7.126;2023-12-22T06:10:23;99351.00;;;11.40
9119;BMP180;4594;50.994;7.126;2023-12-22T06:12:49;99355.00;;;11.50
9119;BMP180;4594;50.994;7.126;2023-12-22T06:15:14;99359.00;;;11.50
9119;BMP180;4594;50.994;7.126;2023-12-22T06:17:40;99319.00;;;11.60
9119;BMP180;4594;50.994;7.126;2023-12-22T06:20:06;99365.00;;;11.60
9119;BMP180;4594;50.994;7.126;2023-12-22T06:22:32;99371.00;;;11.60
9119;BMP180;4594;50.994;7.126;2023-12-22T06:24:58;99358.00;;;11.70
9119;BMP180;4594;50.994;7.126;2023-12-22T06:27:24;99375.00;;;11.70
9119;BMP180;4594;50.994;7.126;2023-12-22T06:29:50;99384.00;;;11.70
9119;BMP180;4594;50.994;7.126;2023-12-22T06:32:16;99382.00;;;11.70
9119;BMP180;4594;50.994;7.126;2023-12-22T06:34:43;99386.00;;;11.80
9119;BMP180;4594;50.994;7.126;2023-12-22T06:37:08;99397.00;;;11.80
9119;BMP180;4594;50.994;7.126;2023-12-22T06:39:36;99383.00;;;11.80
9119;BMP180;4594;50.994;7.126;2023-12-22T06:42:02;99383.00;;;11.90
9119;BMP180;4594;50.994;7.126;2023-12-22T06:44:29;99393.00;;;11.90
9119;BMP180;4594;50.994;7.126;2023-12-22T06:46:57;99399.00;;;11.90
9119;BMP180;4594;50.994;7.126;2023-12-22T06:49:22;99379.00;;;12.00
9119;BMP180;4594;50.994;7.126;2023-12-22T06:51:48;99374.00;;;12.00
9119;BMP180;4594;50.994;7.126;2023-12-22T06:54:14;99383.00;;;12.00
9119;BMP180;4594;50.994;7.126;2023-12-22T06:56:39;99369.00;;;12.10
9119;BMP180;4594;50.994;7.126;2023-12-22T06:59:06;99381.00;;;12.10
9119;BMP180;4594;50.994;7.126;2023-12-22T07:01:34;99383.00;;;12.20
9119;BMP180;4594;50.994;7.126;2023-12-22T07:04:02;99384.00;;;12.20
9119;BMP180;4594;50.994;7.126;2023-12-22T07:06:34;99400.00;;;12.20
9119;BMP180;4594;50.994;7.126;2023-12-22T07:14:03;99383.00;;;12.30
9119;BMP180;4594;50.994;7.126;2023-12-22T07:16:29;99397.00;;;12.30
9119;BMP180;4594;50.994;7.126;2023-12-22T07:18:55;99377.00;;;12.30
9119;BMP180;4594;50.994;7.126;2023-12-22T07:21:21;99386.00;;;12.30
9119;BMP180;4594;50.994;7.126;2023-12-22T07:23:47;99389.00;;;12.30
9119;BMP180;4594;50.994;7.126;2023-12-22T07:26:12;99402.00;;;12.30
9119;BMP180;4594;50.994;7.126;2023-12-22T07:28:38;99387.00;;;12.40
9119;BMP180;4594;50.994;7.126;2023-12-22T07:31:04;99378.00;;;12.40
9119;BMP180;4594;50.994;7.126;2023-12-22T07:33:31;99414.00;;;12.40
9119;BMP180;4594;50.994;7.126;2023-12-22T07:35:57;99423.00;;;12.40
9119;BMP180;4594;50.994;7.126;2023-12-22T07:38:23;99402.00;;;12.40
9119;BMP180;4594;50.994;7.126;2023-12-22T07:40:48;99406.00;;;12.40
9119;BMP180;4594;50.994;7.126;2023-12-22T07:43:15;99424.00;;;12.40
9119;BMP180;4594;50.994;7.126;2023-12-22T07:45:41;99369.00;;;12.40
9119;BMP180;4594;50.994;7.126;2023-12-22T07:48:07;99407.00;;;12.40
9119;BMP180;4594;50.994;7.126;2023-12-22T07:50:33;99392.00;;;12.40
9119;BMP180;4594;50.994;7.126;2023-12-22T07:52:59;99402.00;;;12.30
9119;BMP180;4594;50.994;7.126;2023-12-22T07:55:25;99409.00;;;12.30
9119;BMP180;4594;50.994;7.126;2023-12-22T07:57:51;99407.00;;;12.30
9119;BMP180;4594;50.994;7.126;2023-12-22T08:00:17;99377.00;;;12.30
9119;BMP180;4594;50.994;7.126;2023-12-22T08:02:44;99412.00;;;12.30
9119;BMP180;4594;50.994;7.126;2023-12-22T08:05:10;99395.00;;;12.30
9119;BMP180;4594;50.994;7.126;2023-12-22T08:07:36;99424.00;;;12.30
9119;BMP180;4594;50.994;7.126;2023-12-22T08:10:03;99415.00;;;12.30
9119;BMP180;4594;50.994;7.126;2023-12-22T08:12:29;99388.00;;;12.30
9119;BMP180;4594;50.994;7.126;2023-12-22T08:14:57;99384.00;;;12.30
9119;BMP180;4594;50.994;7.126;2023-12-22T08:17:22;99394.00;;;12.30
9119;BMP180;4594;50.994;7.126;2023-12-22T08:19:48;99380.00;;;12.30
9119;BMP180;4594;50.994;7.126;2023-12-22T08:22:15;99375.00;;;12.30
9119;BMP180;4594;50.994;7.126;2023-12-22T08:24:40;99399.00;;;12.30
9119;BMP180;4594;50.994;7.126;2023-12-22T08:27:07;99423.00;;;12.40
9119;BMP180;4594;50.994;7.126;2023-12-22T08:29:33;99416.00;;;12.40
9119;BMP180;4594;50.994;7.126;2023-12-22T08:32:00;99396.00;;;12.40
9119;BMP180;4594;50.994;7.126;2023-12-22T08:34:27;99416.00;;;12.50
9119;BMP180;4594;50.994;7.126;2023-12-22T08:36:52;99411.00;;;12.50
9119;BMP180;4594;50.994;7.126;2023-12-22T08:39:18;99401.00;;;12.60
9119;BMP180;4594;50.994;7.126;2023-12-22T08:41:45;99402.00;;;12.60
9119;BMP180;4594;50.994;7.126;2023-12-22T08:44:11;99408.00;;;12.60
9119;BMP180;4594;50.994;7.126;2023-12-22T08:46:40;99392.00;;;12.60
9119;BMP180;4594;50.994;7.126;2023-12-22T08:49:06;99400.00;;;12.70
9119;BMP180;4594;50.994;7.126;2023-12-22T08:51:31;99377.00;;;12.70
9119;BMP180;4594;50.994;7.126;2023-12-22T08:53:58;99390.00;;;12.70
9119;BMP180;4594;50.994;7.126;2023-12-22T08:56:24;99410.00;;;12.80
9119;BMP180;4594;50.994;7.126;2023-12-22T08:58:52;99403.00;;;12.70
9119;BMP180;4594;50.994;7.126;2023-12-22T09:01:20;99367.00;;;12.90
9119;BMP180;4594;50.994;7.126;2023-12-22T09:03:46;99364.00;;;12.90
9119;BMP180;4594;50.994;7.126;2023-12-22T09:06:16;99383.00;;;12.90
9119;BMP180;4594;50.994;7.126;2023-12-22T09:08:42;99399.00;;;12.90
9119;BMP180;4594;50.994;7.126;2023-12-22T09:11:11;99380.00;;;13.00
9119;BMP180;4594;50.994;7.126;2023-12-22T09:13:36;99396.00;;;13.00
9119;BMP180;4594;50.994;7.126;2023-12-22T09:16:03;99390.00;;;13.10
9119;BMP180;4594;50.994;7.126;2023-12-22T09:18:29;99383.00;;;13.10
9119;BMP180;4594;50.994;7.126;2023-12-22T09:20:54;99388.00;;;13.10
9119;BMP180;4594;50.994;7.126;2023-12-22T09:23:20;99387.00;;;13.20
9119;BMP180;4594;50.994;7.126;2023-12-22T09:25:47;99373.00;;;13.20
9119;BMP180;4594;50.994;7.126;2023-12-22T09:28:14;99372.00;;;13.20
9119;BMP180;4594;50.994;7.126;2023-12-22T09:30:39;99360.00;;;13.30
9119;BMP180;4594;50.994;7.126;2023-12-22T09:33:05;99357.00;;;13.30
9119;BMP180;4594;50.994;7.126;2023-12-22T09:35:30;99347.00;;;13.30
9119;BMP180;4594;50.994;7.126;2023-12-22T09:37:56;99338.00;;;13.30
9119;BMP180;4594;50.994;7.126;2023-12-22T09:40:22;99327.00;;;13.30
9119;BMP180;4594;50.994;7.126;2023-12-22T09:42:49;99338.00;;;13.40
9119;BMP180;4594;50.994;7.126;2023-12-22T09:45:17;99361.00;;;13.40
9119;BMP180;4594;50.994;7.126;2023-12-22T09:47:47;99354.00;;;13.40
9119;BMP180;4594;50.994;7.126;2023-12-22T09:50:15;99355.00;;;13.50
9119;BMP180;4594;50.994;7.126;2023-12-22T09:52:44;99321.00;;;13.40
9119;BMP180;4594;50.994;7.126;2023-12-22T09:55:13;99326.00;;;13.50
9119;BMP180;4594;50.994;7.126;2023-12-22T09:57:39;99333.00;;;13.50
9119;BMP180;4594;50.994;7.126;2023-12-22T10:00:09;99317.00;;;13.50
9119;BMP180;4594;50.994;7.126;2023-12-22T10:02:39;99312.00;;;13.50
9119;BMP180;4594;50.994;7.126;2023-12-22T10:05:06;99315.00;;;13.50
9119;BMP180;4594;50.994;7.126;2023-12-22T10:07:33;99319.00;;;13.60
9119;BMP180;4594;50.994;7.126;2023-12-22T10:10:00;99327.00;;;13.60
9119;BMP180;4594;50.994;7.126;2023-12-22T10:12:29;99324.00;;;13.60
9119;BMP180;4594;50.994;7.126;2023-12-22T10:14:57;99323.00;;;13.70
9119;BMP180;4594;50.994;7.126;2023-12-22T10:17:24;99309.00;;;13.70
9119;BMP180;4594;50.994;7.126;2023-12-22T10:19:50;99326.00;;;13.80
9119;BMP180;4594;50.994;7.126;2023-12-22T10:22:16;99317.00;;;13.80
9119;BMP180;4594;50.994;7.126;2023-12-22T10:24:45;99314.00;;;13.80
9119;BMP180;4594;50.994;7.126;2023-12-22T10:27:17;99304.00;;;13.80
9119;BMP180;4594;50.994;7.126;2023-12-22T10:29:49;99282.00;;;13.90
9119;BMP180;4594;50.994;7.126;2023-12-22T10:32:16;99287.00;;;13.90
9119;BMP180;4594;50.994;7.126;2023-12-22T10:34:42;99306.00;;;13.90
9119;BMP180;4594;50.994;7.126;2023-12-22T10:37:09;99289.00;;;13.90
9119;BMP180;4594;50.994;7.126;2023-12-22T10:39:36;99290.00;;;13.90
9119;BMP180;4594;50.994;7.126;2023-12-22T10:42:03;99298.00;;;13.90
9119;BMP180;4594;50.994;7.126;2023-12-22T10:44:29;99286.00;;;13.90
9119;BMP180;4594;50.994;7.126;2023-12-22T10:46:57;99304.00;;;14.00
9119;BMP180;4594;50.994;7.126;2023-12-22T10:49:24;99284.00;;;14.00
9119;BMP180;4594;50.994;7.126;2023-12-22T10:51:51;99287.00;;;14.00
9119;BMP180;4594;50.994;7.126;2023-12-22T10:54:18;99276.00;;;14.00
9119;BMP180;4594;50.994;7.126;2023-12-22T10:56:43;99278.00;;;14.00
9119;BMP180;4594;50.994;7.126;2023-12-22T10:59:10;99286.00;;;14.00
9119;BMP180;4594;50.994;7.126;2023-12-22T11:01:37;99288.00;;;14.10
9119;BMP180;4594;50.994;7.126;2023-12-22T11:04:18;99289.00;;;14.10
9119;BMP180;4594;50.994;7.126;2023-12-22T11:06:49;99269.00;;;14.10
9119;BMP180;4594;50.994;7.126;2023-12-22T11:09:17;99275.00;;;14.10
9119;BMP180;4594;50.994;7.126;2023-12-22T11:11:47;99280.00;;;14.10
9119;BMP180;4594;50.994;7.126;2023-12-22T11:14:14;99264.00;;;14.10
9119;BMP180;4594;50.994;7.126;2023-12-22T11:16:42;99256.00;;;14.10
9119;BMP180;4594;50.994;7.126;2023-12-22T11:19:14;99267.00;;;14.20
9119;BMP180;4594;50.994;7.126;2023-12-22T11:21:40;99264.00;;;14.20
9119;BMP180;4594;50.994;7.126;2023-12-22T11:24:08;99259.00;;;14.20
9119;BMP180;4594;50.994;7.126;2023-12-22T11:26:34;99285.00;;;14.20
9119;BMP180;4594;50.994;7.126;2023-12-22T11:29:03;99279.00;;;14.20
9119;BMP180;4594;50.994;7.126;2023-12-22T11:31:31;99285.00;;;14.20
9119;BMP180;4594;50.994;7.126;2023-12-22T11:33:58;99282.00;;;14.20
9119;BMP180;4594;50.994;7.126;2023-12-22T11:36:26;99267.00;;;14.30
9119;BMP180;4594;50.994;7.126;2023-12-22T11:38:52;99265.00;;;14.30
9119;BMP180;4594;50.994;7.126;2023-12-22T11:41:26;99254.00;;;14.30
9119;BMP180;4594;50.994;7.126;2023-12-22T11:43:54;99271.00;;;14.30
9119;BMP180;4594;50.994;7.126;2023-12-22T11:46:20;99268.00;;;14.40
9119;BMP180;4594;50.994;7.126;2023-12-22T11:48:53;99264.00;;;14.40
9119;BMP180;4594;50.994;7.126;2023-12-22T11:51:21;99267.00;;;14.40
9119;BMP180;4594;50.994;7.126;2023-12-22T11:53:47;99267.00;;;14.40
9119;BMP180;4594;50.994;7.126;2023-12-22T11:56:13;99277.00;;;14.50
9119;BMP180;4594;50.994;7.126;2023-12-22T11:58:43;99252.00;;;14.50
9119;BMP180;4594;50.994;7.126;2023-12-22T12:01:17;99244.00;;;14.50
9119;BMP180;4594;50.994;7.126;2023-12-22T12:03:57;99257.00;;;14.60
9119;BMP180;4594;50.994;7.126;2023-12-22T12:08:55;99253.00;;;14.60
9119;BMP180;4594;50.994;7.126;2023-12-22T12:14:14;99248.00;;;14.60
9119;BMP180;4594;50.994;7.126;2023-12-22T12:16:42;99255.00;;;14.60
9119;BMP180;4594;50.994;7.126;2023-12-22T12:19:11;99239.00;;;14.60
9119;BMP180;4594;50.994;7.126;2023-12-22T12:21:37;99240.00;;;14.70
9119;BMP180;4594;50.994;7.126;2023-12-22T12:24:05;99223.00;;;14.70
9119;BMP180;4594;50.994;7.126;2023-12-22T12:26:33;99228.00;;;14.70
9119;BMP180;4594;50.994;7.126;2023-12-22T12:28:59;99216.00;;;14.70
9119;BMP180;4594;50.994;7.126;2023-12-22T12:31:45;99231.00;;;14.70
9119;BMP180;4594;50.994;7.126;2023-12-22T12:34:11;99236.00;;;14.70
9119;BMP180;4594;50.994;7.126;2023-12-22T12:36:38;99226.00;;;14.80
9119;BMP180;4594;50.994;7.126;2023-12-22T12:39:08;99236.00;;;14.80
9119;BMP180;4594;50.994;7.126;2023-12-22T12:41:41;99244.00;;;14.80
9119;BMP180;4594;50.994;7.126;2023-12-22T12:44:10;99238.00;;;14.80
9119;BMP180;4594;50.994;7.126;2023-12-22T12:46:40;99241.00;;;14.80
9119;BMP180;4594;50.994;7.126;2023-12-22T12:49:11;99247.00;;;14.90
9119;BMP180;4594;50.994;7.126;2023-12-22T12:51:39;99233.00;;;14.90
9119;BMP180;4594;50.994;7.126;2023-12-22T12:54:09;99245.00;;;14.90
9119;BMP180;4594;50.994;7.126;2023-12-22T12:56:45;99240.00;;;15.00
9119;BMP180;4594;50.994;7.126;2023-12-22T12:59:14;99216.00;;;15.00
9119;BMP180;4594;50.994;7.126;2023-12-22T13:01:45;99230.00;;;15.10
9119;BMP180;4594;50.994;7.126;2023-12-22T13:04:11;99222.00;;;15.10
9119;BMP180;4594;50.994;7.126;2023-12-22T13:06:50;99215.00;;;15.10
9119;BMP180;4594;50.994;7.126;2023-12-22T13:09:17;99230.00;;;15.10
9119;BMP180;4594;50.994;7.126;2023-12-22T13:11:45;99232.00;;;15.10
9119;BMP180;4594;50.994;7.126;2023-12-22T13:14:21;99221.00;;;15.10
9119;BMP180;4594;50.994;7.126;2023-12-22T13:16:47;99228.00;;;15.10
9119;BMP180;4594;50.994;7.126;2023-12-22T13:19:13;99219.00;;;15.10
9119;BMP180;4594;50.994;7.126;2023-12-22T13:21:39;99210.00;;;15.10
9119;BMP180;4594;50.994;7.126;2023-12-22T13:24:15;99228.00;;;15.10
9119;BMP180;4594;50.994;7.126;2023-12-22T13:26:43;99218.00;;;15.10
9119;BMP180;4594;50.994;7.126;2023-12-22T13:29:10;99222.00;;;15.10
9119;BMP180;4594;50.994;7.126;2023-12-22T13:31:41;99224.00;;;15.10
9119;BMP180;4594;50.994;7.126;2023-12-22T13:34:12;99211.00;;;15.10
9119;BMP180;4594;50.994;7.126;2023-12-22T13:36:39;99197.00;;;15.10
9119;BMP180;4594;50.994;7.126;2023-12-22T13:39:06;99209.00;;;15.00
9119;BMP180;4594;50.994;7.126;2023-12-22T13:41:39;99203.00;;;15.00
9119;BMP180;4594;50.994;7.126;2023-12-22T13:44:12;99221.00;;;15.00
9119;BMP180;4594;50.994;7.126;2023-12-22T13:46:39;99243.00;;;15.00
9119;BMP180;4594;50.994;7.126;2023-12-22T13:49:10;99237.00;;;15.00
9119;BMP180;4594;50.994;7.126;2023-12-22T13:51:44;99258.00;;;15.00
9119;BMP180;4594;50.994;7.126;2023-12-22T13:54:10;99231.00;;;15.00
9119;BMP180;4594;50.994;7.126;2023-12-22T13:56:38;99246.00;;;15.00
9119;BMP180;4594;50.994;7.126;2023-12-22T13:59:08;99240.00;;;15.00
9119;BMP180;4594;50.994;7.126;2023-12-22T14:01:34;99230.00;;;15.00
9119;BMP180;4594;50.994;7.126;2023-12-22T14:04:00;99252.00;;;15.00
9119;BMP180;4594;50.994;7.126;2023-12-22T14:06:27;99271.00;;;15.00
9119;BMP180;4594;50.994;7.126;2023-12-22T14:08:53;99248.00;;;15.00
9119;BMP180;4594;50.994;7.126;2023-12-22T14:11:20;99257.00;;;15.00
9119;BMP180;4594;50.994;7.126;2023-12-22T14:13:46;99263.00;;;14.90
9119;BMP180;4594;50.994;7.126;2023-12-22T14:16:11;99266.00;;;14.90
9119;BMP180;4594;50.994;7.126;2023-12-22T14:18:37;99265.00;;;14.90
9119;BMP180;4594;50.994;7.126;2023-12-22T14:21:03;99277.00;;;14.90
9119;BMP180;4594;50.994;7.126;2023-12-22T14:23:31;99289.00;;;14.90
9119;BMP180;4594;50.994;7.126;2023-12-22T14:25:56;99265.00;;;14.90
9119;BMP180;4594;50.994;7.126;2023-12-22T14:28:22;99275.00;;;14.90
9119;BMP180;4594;50.994;7.126;2023-12-22T14:30:48;99272.00;;;14.90
9119;BMP180;4594;50.994;7.126;2023-12-22T14:33:14;99273.00;;;14.90
9119;BMP180;4594;50.994;7.126;2023-12-22T14:35:40;99274.00;;;14.90
9119;BMP180;4594;50.994;7.126;2023-12-22T14:38:06;99283.00;;;14.90
9119;BMP180;4594;50.994;7.126;2023-12-22T14:40:31;99284.00;;;14.90
9119;BMP180;4594;50.994;7.126;2023-12-22T14:42:58;99276.00;;;14.90
9119;BMP180;4594;50.994;7.126;2023-12-22T14:45:24;99305.00;;;14.80